createdAt,value
2022-11-18T00:01:11.673Z,9.53
2022-11-18T00:03:39.784Z,9.50
2022-11-18T00:06:10.818Z,9.48
2022-11-18T00:08:38.296Z,9.47
2022-11-18T00:11:10.688Z,9.44
2022-11-18T00:13:57.320Z,9.45
2022-11-18T00:16:24.946Z,9.42
2022-11-18T00:18:52.109Z,9.45
2022-11-18T00:21:19.394Z,9.47
2022-11-18T00:23:49.228Z,9.53
2022-11-18T00:26:16.634Z,9.41
2022-11-18T00:28:43.921Z,9.57
2022-11-18T00:31:13.540Z,9.61
2022-11-18T00:33:40.935Z,9.61
2022-11-18T00:36:11.490Z,9.53
2022-11-18T00:38:39.781Z,9.50
2022-11-18T00:41:09.783Z,9.45
2022-11-18T00:43:37.933Z,9.40
2022-11-18T00:46:06.968Z,9.33
2022-11-18T00:48:34.821Z,9.24
2022-11-18T00:51:16.343Z,9.33
2022-11-18T00:53:44.262Z,9.38
2022-11-18T00:56:11.808Z,9.43
2022-11-18T00:58:39.224Z,9.26
2022-11-18T01:01:06.651Z,9.26
2022-11-18T01:03:33.938Z,9.36
2022-11-18T01:06:01.009Z,9.44
2022-11-18T01:08:28.533Z,9.43
2022-11-18T01:11:15.675Z,9.42
2022-11-18T01:13:42.896Z,9.49
2022-11-18T01:16:10.020Z,9.54
2022-11-18T01:18:37.324Z,9.56
2022-11-18T01:21:04.889Z,9.55
2022-11-18T01:23:32.901Z,9.50
2022-11-18T01:26:06.381Z,9.55
2022-11-18T01:28:33.902Z,9.53
2022-11-18T01:31:07.800Z,9.44
2022-11-18T01:33:35.411Z,9.51
2022-11-18T01:36:03.001Z,9.63
2022-11-18T01:38:30.405Z,9.63
2022-11-18T01:40:57.782Z,9.66
2022-11-18T01:43:25.144Z,9.64
2022-11-18T01:45:54.238Z,9.57
2022-11-18T01:48:24.411Z,9.61
2022-11-18T01:51:03.332Z,9.55
2022-11-18T01:53:39.154Z,9.49
2022-11-18T01:56:14.790Z,9.60
2022-11-18T01:58:46.901Z,9.34
2022-11-18T02:01:14.422Z,9.38
2022-11-18T02:03:43.697Z,9.46
2022-11-18T02:06:11.598Z,9.54
2022-11-18T02:08:40.476Z,9.61
2022-11-18T02:11:31.877Z,9.57
2022-11-18T02:14:00.903Z,9.66
2022-11-18T02:16:48.957Z,9.64
2022-11-18T02:19:34.162Z,9.67
2022-11-18T02:22:20.504Z,9.69
2022-11-18T02:25:10.836Z,9.67
2022-11-18T02:27:53.341Z,9.41
2022-11-18T02:30:20.838Z,9.40
2022-11-18T02:33:00.955Z,9.45
2022-11-18T02:35:34.228Z,9.55
2022-11-18T02:38:13.179Z,9.57
2022-11-18T02:40:45.462Z,8.72
2022-11-18T02:43:25.293Z,8.90
2022-11-18T02:45:58.833Z,9.12
2022-11-18T02:48:30.396Z,9.08
2022-11-18T02:50:58.533Z,9.22
2022-11-18T02:53:30.903Z,9.33
2022-11-18T02:56:00.319Z,9.34
2022-11-18T02:58:27.707Z,9.24
2022-11-18T03:01:00.513Z,9.41
2022-11-18T03:03:36.349Z,9.36
2022-11-18T03:06:29.928Z,9.36
2022-11-18T03:09:03.077Z,9.30
2022-11-18T03:11:38.378Z,9.26
2022-11-18T03:14:08.427Z,9.28
2022-11-18T03:16:41.920Z,9.31
2022-11-18T03:19:22.190Z,9.27
2022-11-18T03:22:18.098Z,9.29
2022-11-18T03:24:56.456Z,9.30
2022-11-18T03:27:46.486Z,9.17
2022-11-18T03:30:20.918Z,9.23
2022-11-18T03:32:56.690Z,9.22
2022-11-18T03:35:27.031Z,9.23
2022-11-18T03:38:03.940Z,9.27
2022-11-18T03:40:33.385Z,9.20
2022-11-18T03:43:09.553Z,8.80
2022-11-18T03:45:45.193Z,9.09
2022-11-18T03:48:16.823Z,9.10
2022-11-18T03:50:55.864Z,9.10
2022-11-18T03:53:28.087Z,9.11
2022-11-18T03:56:02.563Z,8.98
2022-11-18T03:58:51.116Z,8.85
2022-11-18T04:01:26.345Z,8.60
2022-11-18T04:03:53.621Z,8.58
2022-11-18T04:06:38.636Z,8.26
2022-11-18T04:09:13.714Z,8.39
2022-11-18T04:12:04.799Z,8.51
2022-11-18T04:14:41.255Z,8.56
2022-11-18T04:17:17.976Z,8.58
2022-11-18T04:19:45.578Z,8.67
2022-11-18T04:22:13.963Z,8.62
2022-11-18T04:24:41.568Z,8.74
2022-11-18T04:27:08.998Z,8.74
2022-11-18T04:29:36.557Z,8.61
2022-11-18T04:32:04.971Z,8.65
2022-11-18T04:34:32.261Z,8.63
2022-11-18T04:36:59.863Z,8.78
2022-11-18T04:39:27.176Z,8.77
2022-11-18T04:41:58.122Z,8.83
2022-11-18T04:44:33.005Z,8.84
2022-11-18T04:47:04.006Z,8.60
2022-11-18T04:49:31.636Z,8.59
2022-11-18T04:51:59.747Z,8.68
2022-11-18T04:54:28.160Z,8.77
2022-11-18T04:56:56.087Z,8.82
2022-11-18T04:59:28.719Z,8.80
2022-11-18T05:01:57.040Z,8.90
2022-11-18T05:04:27.080Z,8.85
2022-11-18T05:06:54.702Z,8.89
2022-11-18T05:09:24.887Z,8.84
2022-11-18T05:12:14.508Z,8.99
2022-11-18T05:14:46.600Z,8.90
2022-11-18T05:17:16.848Z,8.81
2022-11-18T05:19:43.903Z,8.93
2022-11-18T05:22:11.099Z,9.03
2022-11-18T05:24:38.197Z,9.03
2022-11-18T05:27:05.499Z,8.97
2022-11-18T05:29:34.010Z,9.13
2022-11-18T05:32:01.638Z,9.20
2022-11-18T05:34:28.853Z,9.27
2022-11-18T05:36:56.027Z,9.21
2022-11-18T05:39:23.308Z,9.24
2022-11-18T05:42:08.904Z,9.16
2022-11-18T05:44:36.312Z,9.14
2022-11-18T05:47:03.504Z,9.13
2022-11-18T05:49:30.795Z,9.25
2022-11-18T05:51:58.015Z,9.19
2022-11-18T05:54:25.956Z,9.39
2022-11-18T05:56:53.208Z,9.46
2022-11-18T05:59:20.801Z,9.52
2022-11-18T06:01:56.136Z,9.46
2022-11-18T06:04:45.057Z,9.10
2022-11-18T06:07:18.426Z,8.59
2022-11-18T06:09:50.534Z,8.75
2022-11-18T06:12:21.622Z,8.78
2022-11-18T06:15:01.921Z,8.99
2022-11-18T06:17:35.050Z,9.15
2022-11-18T06:20:03.408Z,9.15
2022-11-18T06:22:30.766Z,9.20
2022-11-18T06:24:58.239Z,9.35
2022-11-18T06:27:25.594Z,9.45
2022-11-18T06:29:52.959Z,9.07
2022-11-18T06:32:20.474Z,9.14
2022-11-18T06:34:47.689Z,8.82
2022-11-18T06:37:15.697Z,9.16
2022-11-18T06:39:43.408Z,9.45
2022-11-18T06:42:11.408Z,9.70
2022-11-18T06:44:38.523Z,9.81
2022-11-18T06:47:05.957Z,9.90
2022-11-18T06:49:33.142Z,9.71
2022-11-18T06:52:00.512Z,9.49
2022-11-18T06:54:27.801Z,9.58
2022-11-18T06:56:55.101Z,9.37
2022-11-18T06:59:24.054Z,9.88
2022-11-18T07:01:53.446Z,9.98
2022-11-18T07:04:21.410Z,10.05
2022-11-18T07:06:48.604Z,10.05
2022-11-18T07:09:16.258Z,9.84
2022-11-18T07:11:43.437Z,9.84
2022-11-18T07:14:10.964Z,9.98
2022-11-18T07:16:38.116Z,10.07
2022-11-18T07:19:10.843Z,10.26
2022-11-18T07:21:39.054Z,10.34
2022-11-18T07:24:08.767Z,10.37
2022-11-18T07:26:36.569Z,10.53
2022-11-18T07:29:04.524Z,10.55
2022-11-18T07:31:32.325Z,10.81
2022-11-18T07:33:59.805Z,10.92
2022-11-18T07:36:35.245Z,11.15
2022-11-18T07:39:05.037Z,11.27
2022-11-18T07:41:32.712Z,11.13
2022-11-18T07:44:02.095Z,11.44
2022-11-18T07:46:32.738Z,11.53
2022-11-18T07:49:02.195Z,11.61
2022-11-18T07:51:32.727Z,11.67
2022-11-18T07:54:00.271Z,11.68
2022-11-18T07:56:27.625Z,11.60
2022-11-18T07:58:55.886Z,11.73
2022-11-18T08:01:25.354Z,11.79
2022-11-18T08:03:52.771Z,11.85
2022-11-18T08:06:20.575Z,11.89
2022-11-18T08:08:48.252Z,11.77
2022-11-18T08:11:22.346Z,11.79
2022-11-18T08:13:52.103Z,11.50
2022-11-18T08:16:22.396Z,11.88
2022-11-18T08:18:50.136Z,11.91
2022-11-18T08:21:19.725Z,11.97
2022-11-18T08:23:55.810Z,12.05
2022-11-18T08:26:25.034Z,12.05
2022-11-18T08:28:52.787Z,12.11
2022-11-18T08:31:24.627Z,12.15
2022-11-18T08:34:04.066Z,11.76
2022-11-18T08:36:34.151Z,12.16
2022-11-18T08:39:03.271Z,12.18
2022-11-18T08:41:38.205Z,12.21
2022-11-18T08:44:07.298Z,12.24
2022-11-18T08:46:34.684Z,12.30
2022-11-18T08:49:02.245Z,12.27
2022-11-18T08:51:29.574Z,12.26
2022-11-18T08:53:57.166Z,12.31
2022-11-18T08:56:25.328Z,12.29
2022-11-18T08:58:53.813Z,12.34
2022-11-18T09:01:21.331Z,12.26
2022-11-18T09:03:49.632Z,12.38
2022-11-18T09:06:23.045Z,12.28
2022-11-18T09:08:50.954Z,12.46
2022-11-18T09:11:21.728Z,12.45
2022-11-18T09:14:39.005Z,12.46
2022-11-18T09:16:41.542Z,12.45
2022-11-18T09:19:32.070Z,12.44
2022-11-18T09:21:56.029Z,12.45
2022-11-18T09:24:23.643Z,12.61
2022-11-18T09:26:51.050Z,12.68
2022-11-18T09:29:18.634Z,12.57
2022-11-18T09:31:46.210Z,12.58
2022-11-18T09:34:13.486Z,12.62
2022-11-18T09:36:40.703Z,12.62
2022-11-18T09:39:08.138Z,12.72
2022-11-18T09:41:46.330Z,12.75
2022-11-18T09:44:31.933Z,12.76
2022-11-18T09:47:27.406Z,12.89
2022-11-18T09:49:58.028Z,12.88
2022-11-18T09:52:35.883Z,12.78
2022-11-18T09:55:17.011Z,12.94
2022-11-18T09:57:46.985Z,12.88
2022-11-18T10:00:15.767Z,12.89
2022-11-18T10:02:46.089Z,12.95
2022-11-18T10:05:26.654Z,13.00
2022-11-18T10:08:15.919Z,13.03
2022-11-18T10:11:05.112Z,13.10
2022-11-18T10:13:43.630Z,13.20
2022-11-18T10:16:58.178Z,13.21
2022-11-18T10:19:34.332Z,13.24
2022-11-18T10:22:16.730Z,13.21
2022-11-18T10:24:52.974Z,13.28
2022-11-18T10:27:21.462Z,13.16
2022-11-18T10:29:54.920Z,13.01
2022-11-18T10:32:22.161Z,13.21
2022-11-18T10:34:55.226Z,13.29
2022-11-18T10:40:28.984Z,13.67
2022-11-18T10:42:56.824Z,13.77
2022-11-18T10:45:25.062Z,13.98
2022-11-18T10:48:14.386Z,14.15
2022-11-18T10:50:55.601Z,14.23
2022-11-18T10:53:35.621Z,14.39
2022-11-18T10:56:06.517Z,14.19
2022-11-18T10:58:37.775Z,14.29
2022-11-18T11:01:20.003Z,14.30
2022-11-18T11:03:58.705Z,14.12
2022-11-18T11:06:34.877Z,14.18
2022-11-18T11:09:09.908Z,14.21
2022-11-18T11:12:02.493Z,14.06
2022-11-18T11:14:37.145Z,14.12
2022-11-18T11:17:19.367Z,14.04
2022-11-18T11:20:05.657Z,14.00
2022-11-18T11:22:35.097Z,14.18
2022-11-18T11:25:02.750Z,14.29
2022-11-18T11:28:25.806Z,14.48
2022-11-18T11:31:05.421Z,14.57
2022-11-18T11:33:41.179Z,14.66
2022-11-18T11:36:17.897Z,14.62
2022-11-18T11:39:04.242Z,14.67
2022-11-18T11:41:52.064Z,14.75
2022-11-18T11:44:28.503Z,14.93
2022-11-18T11:47:28.121Z,15.10
2022-11-18T11:50:14.191Z,15.18
2022-11-18T11:52:59.814Z,15.11
2022-11-18T11:56:04.565Z,15.01
2022-11-18T11:59:00.066Z,14.86
2022-11-18T12:01:50.732Z,14.87
2022-11-18T12:04:37.732Z,14.78
2022-11-18T12:07:12.563Z,14.71
2022-11-18T12:09:57.447Z,14.64
2022-11-18T12:12:36.304Z,14.58
2022-11-18T12:15:07.384Z,14.60
2022-11-18T12:18:01.037Z,14.59
2022-11-18T12:20:48.288Z,14.56
2022-11-18T12:23:26.832Z,14.54
2022-11-18T12:26:01.544Z,14.41
2022-11-18T12:28:30.661Z,14.52
2022-11-18T12:31:34.728Z,14.38
2022-11-18T12:34:18.236Z,14.49
2022-11-18T12:36:45.922Z,14.43
2022-11-18T12:39:25.493Z,14.39
2022-11-18T12:42:19.442Z,14.21
2022-11-18T12:44:49.834Z,14.19
2022-11-18T12:47:37.570Z,14.12
2022-11-18T12:50:09.942Z,14.15
2022-11-18T12:52:37.098Z,14.16
2022-11-18T12:55:27.373Z,14.01
2022-11-18T12:57:54.996Z,14.13
2022-11-18T13:00:25.319Z,14.11
2022-11-18T13:02:54.705Z,14.14
2022-11-18T13:05:23.525Z,14.11
2022-11-18T13:08:15.010Z,14.15
2022-11-18T13:11:14.735Z,14.08
2022-11-18T13:13:43.103Z,13.97
2022-11-18T13:16:42.562Z,14.02
2022-11-18T13:19:20.972Z,14.00
2022-11-18T13:22:12.729Z,13.97
2022-11-18T13:24:52.569Z,14.00
2022-11-18T13:27:50.903Z,13.99
2022-11-18T13:30:18.823Z,14.02
2022-11-18T13:32:48.010Z,13.98
2022-11-18T13:35:23.540Z,13.92
2022-11-18T13:37:54.375Z,13.99
2022-11-18T13:40:29.721Z,13.96
2022-11-18T13:42:57.223Z,13.92
2022-11-18T13:45:28.151Z,13.79
2022-11-18T13:48:09.840Z,13.90
2022-11-18T13:50:51.267Z,13.94
2022-11-18T13:53:27.972Z,13.88
2022-11-18T13:55:57.876Z,13.56
2022-11-18T13:58:28.142Z,13.83
2022-11-18T14:00:57.776Z,13.78
2022-11-18T14:03:33.099Z,13.71
2022-11-18T14:06:00.805Z,13.63
2022-11-18T14:08:29.502Z,13.58
2022-11-18T14:10:57.282Z,13.57
2022-11-18T14:13:29.020Z,13.55
2022-11-18T14:16:19.604Z,13.49
2022-11-18T14:18:49.103Z,13.33
2022-11-18T14:21:28.681Z,13.23
2022-11-18T14:24:00.874Z,13.35
2022-11-18T14:26:38.534Z,13.32
2022-11-18T14:29:21.437Z,13.31
2022-11-18T14:32:17.368Z,13.29
2022-11-18T14:34:44.499Z,13.14
2022-11-18T14:37:14.607Z,13.21
2022-11-18T14:39:42.161Z,13.05
2022-11-18T14:42:13.584Z,12.96
2022-11-18T14:44:40.872Z,12.70
2022-11-18T14:47:28.638Z,12.82
2022-11-18T14:49:56.182Z,12.74
2022-11-18T14:52:23.417Z,12.76
2022-11-18T14:54:53.958Z,12.78
2022-11-18T14:57:21.969Z,12.71
2022-11-18T14:59:49.238Z,12.82
2022-11-18T15:02:18.169Z,12.82
2022-11-18T15:04:48.255Z,12.67
2022-11-18T15:07:23.412Z,12.62
2022-11-18T15:09:51.344Z,12.72
2022-11-18T15:12:19.004Z,12.36
2022-11-18T15:14:46.274Z,12.68
2022-11-18T15:17:14.678Z,12.63
2022-11-18T15:19:42.251Z,12.71
2022-11-18T15:22:10.311Z,12.67
2022-11-18T15:24:37.684Z,12.66
2022-11-18T15:27:06.369Z,12.56
2022-11-18T15:29:34.948Z,12.28
2022-11-18T15:32:05.546Z,12.14
2022-11-18T15:34:33.112Z,12.37
2022-11-18T15:37:00.367Z,12.40
2022-11-18T15:39:27.687Z,12.58
2022-11-18T15:41:55.002Z,12.62
2022-11-18T15:44:22.380Z,12.57
2022-11-18T15:46:50.495Z,12.33
2022-11-18T15:49:18.095Z,12.43
2022-11-18T15:51:45.541Z,12.47
2022-11-18T15:54:13.012Z,12.55
2022-11-18T15:56:41.856Z,12.31
2022-11-18T15:59:17.413Z,12.13
2022-11-18T16:01:47.429Z,12.34
2022-11-18T16:04:17.197Z,12.39
2022-11-18T16:06:46.128Z,12.41
2022-11-18T16:09:15.429Z,12.44
2022-11-18T16:12:01.475Z,12.45
2022-11-18T16:14:29.383Z,12.48
2022-11-18T16:16:57.522Z,12.48
2022-11-18T16:19:26.897Z,12.59
2022-11-18T16:21:57.426Z,12.63
2022-11-18T16:24:27.162Z,12.63
2022-11-18T16:26:55.196Z,12.60
2022-11-18T16:29:24.044Z,12.55
2022-11-18T16:31:52.768Z,12.68
2022-11-18T16:34:22.866Z,12.47
2022-11-18T16:36:57.846Z,12.40
2022-11-18T16:39:27.343Z,12.46
2022-11-18T16:42:06.914Z,12.24
2022-11-18T16:44:35.855Z,12.26
2022-11-18T16:47:07.716Z,12.27
2022-11-18T16:49:37.928Z,12.08
2022-11-18T16:52:08.056Z,12.16
2022-11-18T16:54:38.232Z,12.21
2022-11-18T16:57:09.349Z,12.21
2022-11-18T16:59:36.570Z,12.12
2022-11-18T17:02:03.970Z,12.09
2022-11-18T17:04:31.963Z,12.26
2022-11-18T17:07:03.523Z,12.27
2022-11-18T17:09:30.848Z,12.32
2022-11-18T17:12:03.460Z,12.29
2022-11-18T17:14:31.110Z,12.18
2022-11-18T17:17:01.369Z,12.15
2022-11-18T17:19:29.098Z,12.11
2022-11-18T17:21:57.785Z,12.10
2022-11-18T17:24:26.042Z,11.85
2022-11-18T17:26:53.744Z,11.78
2022-11-18T17:29:21.508Z,11.70
2022-11-18T17:31:49.062Z,11.67
2022-11-18T17:34:17.116Z,11.57
2022-11-18T17:36:45.063Z,11.49
2022-11-18T17:39:13.643Z,11.43
2022-11-18T17:42:00.303Z,11.29
2022-11-18T17:44:28.864Z,11.23
2022-11-18T17:46:56.284Z,11.20
2022-11-18T17:49:24.177Z,11.19
2022-11-18T17:51:51.895Z,11.17
2022-11-18T17:54:20.551Z,11.10
2022-11-18T17:56:50.002Z,11.07
2022-11-18T17:59:17.736Z,11.05
2022-11-18T18:01:46.157Z,11.10
2022-11-18T18:04:21.519Z,11.11
2022-11-18T18:06:52.759Z,11.01
2022-11-18T18:09:22.863Z,11.13
2022-11-18T18:11:54.178Z,11.12
2022-11-18T18:14:21.767Z,11.31
2022-11-18T18:16:50.710Z,11.28
2022-11-18T18:19:21.152Z,11.54
2022-11-18T18:21:48.678Z,11.61
2022-11-18T18:24:18.473Z,11.70
2022-11-18T18:26:46.217Z,11.76
2022-11-18T18:29:13.817Z,11.73
2022-11-18T18:31:41.417Z,11.74
2022-11-18T18:34:08.660Z,11.79
2022-11-18T18:36:36.059Z,11.70
2022-11-18T18:39:03.696Z,11.54
2022-11-18T18:41:32.462Z,11.69
2022-11-18T18:44:00.521Z,11.36
2022-11-18T18:46:34.377Z,11.10
2022-11-18T18:49:13.799Z,11.24
2022-11-18T18:51:43.871Z,11.41
2022-11-18T18:54:13.859Z,11.42
2022-11-18T18:56:42.060Z,11.42
2022-11-18T18:59:10.033Z,11.38
2022-11-18T19:01:38.013Z,11.38
2022-11-18T19:04:07.006Z,11.05
2022-11-18T19:06:58.892Z,10.79
2022-11-18T19:09:25.135Z,10.56
2022-11-18T19:12:12.000Z,11.11
2022-11-18T19:14:40.004Z,11.21
2022-11-18T19:17:12.699Z,11.32
2022-11-18T19:20:00.834Z,11.55
2022-11-18T19:22:33.100Z,11.57
2022-11-18T19:25:01.542Z,11.32
2022-11-18T19:27:29.500Z,11.47
2022-11-18T19:29:56.737Z,11.61
2022-11-18T19:32:24.326Z,11.54
2022-11-18T19:34:51.767Z,11.47
2022-11-18T19:37:19.140Z,11.23
2022-11-18T19:39:46.527Z,11.24
2022-11-18T19:42:14.016Z,11.03
2022-11-18T19:44:41.202Z,11.09
2022-11-18T19:47:08.511Z,11.45
2022-11-18T19:49:35.774Z,11.55
2022-11-18T19:52:03.009Z,11.28
2022-11-18T19:54:30.362Z,11.38
2022-11-18T19:56:57.646Z,11.25
2022-11-18T19:59:24.914Z,11.26
2022-11-18T20:01:52.196Z,11.25
2022-11-18T20:04:19.499Z,11.28
2022-11-18T20:06:47.083Z,10.80
2022-11-18T20:09:14.604Z,10.63
2022-11-18T20:11:43.789Z,10.58
2022-11-18T20:14:12.763Z,10.37
2022-11-18T20:16:40.871Z,10.46
2022-11-18T20:19:13.580Z,10.65
2022-11-18T20:21:43.454Z,10.52
2022-11-18T20:24:16.105Z,10.52
2022-11-18T20:26:44.604Z,10.34
2022-11-18T20:29:12.341Z,10.56
2022-11-18T20:31:39.892Z,10.67
2022-11-18T20:34:07.097Z,10.92
2022-11-18T20:36:36.803Z,10.91
2022-11-18T20:39:07.344Z,10.90
2022-11-18T20:41:36.443Z,11.17
2022-11-18T20:44:04.548Z,11.30
2022-11-18T20:46:50.639Z,11.40
2022-11-18T20:49:18.264Z,10.98
2022-11-18T20:51:45.870Z,11.02
2022-11-18T20:54:13.012Z,10.67
2022-11-18T20:56:40.558Z,10.52
2022-11-18T20:59:08.834Z,10.29
2022-11-18T21:01:36.103Z,10.30
2022-11-18T21:04:04.442Z,10.17
2022-11-18T21:06:32.846Z,10.17
2022-11-18T21:09:02.816Z,9.95
2022-11-18T21:11:33.278Z,10.37
2022-11-18T21:14:26.506Z,10.62
2022-11-18T21:17:00.662Z,10.68
2022-11-18T21:19:28.895Z,10.65
2022-11-18T21:21:56.996Z,10.67
2022-11-18T21:24:28.846Z,10.72
2022-11-18T21:26:58.045Z,10.74
2022-11-18T21:29:27.735Z,10.59
2022-11-18T21:31:55.654Z,10.63
2022-11-18T21:34:23.181Z,10.63
2022-11-18T21:36:54.648Z,10.50
2022-11-18T21:39:24.423Z,10.47
2022-11-18T21:41:56.169Z,10.51
2022-11-18T21:44:26.148Z,10.55
2022-11-18T21:46:53.801Z,10.65
2022-11-18T21:49:21.534Z,10.78
2022-11-18T21:51:49.445Z,10.80
2022-11-18T21:54:18.354Z,10.99
2022-11-18T21:56:45.684Z,10.71
2022-11-18T21:59:13.224Z,10.78
2022-11-18T22:01:40.658Z,10.93
2022-11-18T22:04:07.802Z,11.00
2022-11-18T22:06:35.539Z,11.07
2022-11-18T22:09:04.501Z,10.93
2022-11-18T22:11:32.293Z,10.73
2022-11-18T22:13:59.663Z,10.85
2022-11-18T22:16:27.614Z,10.73
2022-11-18T22:19:00.402Z,10.36
2022-11-18T22:21:31.419Z,10.52
2022-11-18T22:24:00.464Z,10.59
2022-11-18T22:26:28.785Z,10.75
2022-11-18T22:28:58.576Z,10.71
2022-11-18T22:31:28.042Z,10.63
2022-11-18T22:33:56.374Z,10.52
2022-11-18T22:36:26.404Z,10.51
2022-11-18T22:38:54.958Z,10.61
2022-11-18T22:41:43.519Z,10.66
2022-11-18T22:44:12.539Z,11.29
2022-11-18T22:46:41.001Z,11.39
2022-11-18T22:49:10.161Z,11.70
2022-11-18T22:51:38.457Z,11.67
2022-11-18T22:56:55.212Z,11.49
2022-11-18T22:59:22.870Z,11.41
2022-11-18T23:01:53.365Z,11.41
2022-11-18T23:04:20.960Z,11.47
2022-11-18T23:06:48.911Z,11.27
2022-11-18T23:09:17.262Z,11.42
2022-11-18T23:12:04.028Z,11.36
2022-11-18T23:14:32.155Z,11.33
2022-11-18T23:16:59.897Z,11.22
2022-11-18T23:19:30.098Z,11.38
2022-11-18T23:21:57.549Z,11.34
2022-11-18T23:24:25.803Z,11.35
2022-11-18T23:26:53.191Z,11.36
2022-11-18T23:29:21.802Z,11.45
2022-11-18T23:31:50.199Z,11.52
2022-11-18T23:34:17.627Z,11.42
2022-11-18T23:36:45.184Z,11.41
2022-11-18T23:39:13.464Z,11.71
2022-11-18T23:41:41.558Z,11.44
2022-11-18T23:44:09.084Z,11.68
2022-11-18T23:46:36.637Z,11.65
2022-11-18T23:49:09.658Z,11.66
2022-11-18T23:51:38.614Z,11.41
2022-11-18T23:54:06.119Z,11.41
2022-11-18T23:56:37.821Z,11.48
2022-11-18T23:59:07.811Z,11.48
